createdAt,value
2018-09-25T00:02:31.120Z,1.87
2018-09-25T00:05:04.780Z,2.02
2018-09-25T00:07:38.466Z,2.30
2018-09-25T00:10:12.180Z,1.92
2018-09-25T00:12:45.729Z,1.90
2018-09-25T00:15:19.381Z,2.05
2018-09-25T00:17:52.936Z,2.35
2018-09-25T00:20:26.517Z,1.92
2018-09-25T00:23:00.116Z,2.20
2018-09-25T00:25:34.429Z,2.60
2018-09-25T00:28:08.045Z,2.08
2018-09-25T00:30:41.628Z,2.00
2018-09-25T00:33:15.283Z,1.70
2018-09-25T00:35:49.036Z,1.92
2018-09-25T00:38:22.730Z,2.35
2018-09-25T00:40:56.420Z,2.05
2018-09-25T00:43:29.989Z,1.90
2018-09-25T00:46:03.577Z,2.40
2018-09-25T00:48:37.837Z,1.80
2018-09-25T00:51:11.517Z,1.77
2018-09-25T00:53:45.180Z,2.10
2018-09-25T00:56:18.828Z,1.60
2018-09-25T00:58:52.441Z,2.25
2018-09-25T01:01:26.174Z,2.30
2018-09-25T01:03:59.768Z,1.90
2018-09-25T01:06:33.339Z,1.92
2018-09-25T01:09:07.013Z,2.00
2018-09-25T01:11:40.606Z,2.00
2018-09-25T01:14:14.292Z,2.22
2018-09-25T01:16:47.888Z,2.50
2018-09-25T01:19:21.506Z,2.67
2018-09-25T01:21:55.038Z,1.40
2018-09-25T01:24:28.657Z,2.40
2018-09-25T01:27:02.251Z,2.12
2018-09-25T01:29:35.949Z,2.65
2018-09-25T01:32:09.549Z,2.87
2018-09-25T01:34:43.124Z,2.95
2018-09-25T01:37:16.707Z,3.17
2018-09-25T01:39:51.170Z,4.22
2018-09-25T01:42:24.833Z,3.22
2018-09-25T01:44:58.436Z,3.55
2018-09-25T01:47:32.153Z,4.10
2018-09-25T01:50:06.384Z,3.75
2018-09-25T01:52:39.961Z,3.17
2018-09-25T01:55:13.498Z,4.20
2018-09-25T01:57:47.093Z,4.65
2018-09-25T02:00:20.608Z,4.58
2018-09-25T02:02:54.281Z,4.00
2018-09-25T02:05:27.836Z,4.10
2018-09-25T02:08:01.514Z,5.20
2018-09-25T02:10:35.271Z,4.40
2018-09-25T02:13:08.905Z,4.47
2018-09-25T02:15:42.565Z,4.60
2018-09-25T02:18:16.214Z,4.45
2018-09-25T02:20:49.876Z,5.08
2018-09-25T02:23:23.436Z,5.00
2018-09-25T02:25:57.536Z,4.95
2018-09-25T02:28:31.137Z,4.80
2018-09-25T02:31:04.755Z,4.35
2018-09-25T02:33:38.420Z,4.70
2018-09-25T02:36:12.116Z,4.30
2018-09-25T02:38:45.803Z,4.10
2018-09-25T02:41:19.326Z,3.75
2018-09-25T02:43:52.794Z,4.75
2018-09-25T02:46:26.589Z,5.35
2018-09-25T02:49:00.232Z,4.10
2018-09-25T02:51:33.902Z,4.75
2018-09-25T02:54:07.557Z,4.40
2018-09-25T02:56:41.213Z,4.75
2018-09-25T02:59:14.762Z,3.62
2018-09-25T03:01:48.364Z,5.35
2018-09-25T03:04:21.932Z,3.95
2018-09-25T03:06:55.634Z,4.05
2018-09-25T03:09:29.315Z,4.30
2018-09-25T03:12:02.881Z,3.50
2018-09-25T03:14:36.494Z,3.35
2018-09-25T03:17:10.102Z,3.22
2018-09-25T03:19:43.781Z,3.47
2018-09-25T03:22:17.393Z,2.98
2018-09-25T03:24:51.542Z,4.35
2018-09-25T03:27:25.197Z,3.58
2018-09-25T03:29:59.156Z,6.62
2018-09-25T03:32:32.871Z,13.40
2018-09-25T03:35:06.463Z,7.25
2018-09-25T03:37:40.748Z,3.80
2018-09-25T03:40:14.222Z,2.30
2018-09-25T03:42:47.921Z,2.27
2018-09-25T03:45:21.405Z,3.10
2018-09-25T03:47:55.024Z,9.70
2018-09-25T03:50:28.638Z,51.35
2018-09-25T03:53:02.228Z,42.53
2018-09-25T03:55:36.352Z,29.98
2018-09-25T03:58:09.977Z,13.68
2018-09-25T04:00:43.438Z,4.85
2018-09-25T04:03:17.108Z,5.08
2018-09-25T04:05:50.717Z,4.58
2018-09-25T04:08:24.178Z,5.53
2018-09-25T04:10:57.740Z,4.05
2018-09-25T04:13:31.286Z,4.30
2018-09-25T04:16:04.857Z,4.03
2018-09-25T04:18:38.437Z,5.47
2018-09-25T04:21:12.101Z,4.70
2018-09-25T04:23:45.578Z,3.90
2018-09-25T04:26:19.153Z,4.08
2018-09-25T04:28:52.713Z,4.10
2018-09-25T04:31:26.389Z,4.30
2018-09-25T04:33:59.973Z,3.65
2018-09-25T04:36:33.564Z,4.30
2018-09-25T04:39:07.143Z,3.70
2018-09-25T04:41:40.814Z,4.75
2018-09-25T04:44:14.523Z,6.60
2018-09-25T04:46:49.189Z,6.58
2018-09-25T04:49:23.564Z,6.60
2018-09-25T04:51:58.864Z,3.50
2018-09-25T04:54:35.140Z,3.47
2018-09-25T04:57:08.778Z,3.27
2018-09-25T04:59:42.441Z,3.08
2018-09-25T05:02:16.520Z,3.83
2018-09-25T05:04:50.227Z,3.95
2018-09-25T05:07:23.835Z,3.17
2018-09-25T05:09:57.415Z,3.70
2018-09-25T05:12:31.088Z,3.70
2018-09-25T05:15:04.565Z,5.05
2018-09-25T05:17:38.201Z,3.35
2018-09-25T05:20:11.708Z,5.12
2018-09-25T05:22:45.395Z,4.30
2018-09-25T05:25:19.066Z,3.77
2018-09-25T05:27:52.712Z,3.47
2018-09-25T05:30:26.265Z,3.90
2018-09-25T05:32:59.840Z,2.70
2018-09-25T05:35:33.512Z,2.80
2018-09-25T05:38:07.468Z,1.62
2018-09-25T05:40:41.059Z,3.72
2018-09-25T05:43:14.620Z,3.30
2018-09-25T05:45:48.279Z,2.87
2018-09-25T05:48:22.524Z,2.85
2018-09-25T05:50:56.156Z,2.98
2018-09-25T05:53:29.842Z,2.33
2018-09-25T05:56:03.390Z,4.00
2018-09-25T05:58:37.054Z,4.42
2018-09-25T06:01:18.005Z,4.45
2018-09-25T06:03:51.545Z,3.72
2018-09-25T06:06:25.329Z,4.28
2018-09-25T06:08:58.977Z,5.30
2018-09-25T06:11:33.381Z,4.87
2018-09-25T06:14:07.056Z,4.90
2018-09-25T06:16:40.609Z,5.05
2018-09-25T06:19:15.291Z,5.42
2018-09-25T06:21:48.866Z,4.12
2018-09-25T06:24:22.432Z,4.80
2018-09-25T06:26:56.124Z,4.30
2018-09-25T06:29:30.093Z,4.35
2018-09-25T06:32:03.870Z,4.45
2018-09-25T06:34:37.592Z,4.00
2018-09-25T06:37:11.281Z,3.95
2018-09-25T06:39:44.884Z,4.72
2018-09-25T06:42:18.589Z,5.33
2018-09-25T06:44:52.244Z,5.10
2018-09-25T06:47:25.846Z,5.10
2018-09-25T06:49:59.457Z,4.80
2018-09-25T06:52:34.132Z,4.75
2018-09-25T06:55:07.881Z,5.35
2018-09-25T06:57:41.516Z,4.80
2018-09-25T07:00:15.176Z,6.08
2018-09-25T07:02:48.913Z,9.55
2018-09-25T07:05:22.565Z,7.03
2018-09-25T07:07:56.241Z,5.83
2018-09-25T07:10:29.968Z,6.58
2018-09-25T07:13:03.553Z,5.65
2018-09-25T07:15:37.008Z,6.87
2018-09-25T07:18:10.648Z,6.10
2018-09-25T07:20:44.332Z,6.12
2018-09-25T07:23:18.003Z,5.75
2018-09-25T07:25:51.631Z,7.25
2018-09-25T07:28:25.176Z,6.75
2018-09-25T07:30:58.748Z,6.83
2018-09-25T07:33:32.369Z,6.75
2018-09-25T07:36:05.893Z,6.97
2018-09-25T07:38:39.346Z,6.70
2018-09-25T07:41:13.088Z,7.33
2018-09-25T07:43:46.841Z,6.67
2018-09-25T07:46:20.312Z,8.20
2018-09-25T07:48:54.046Z,6.85
2018-09-25T07:51:27.629Z,7.35
2018-09-25T07:54:01.310Z,6.90
2018-09-25T07:56:34.777Z,7.40
2018-09-25T07:59:08.335Z,8.78
2018-09-25T08:01:42.030Z,8.18
2018-09-25T08:04:16.524Z,7.22
2018-09-25T08:06:50.139Z,10.00
2018-09-25T08:09:23.741Z,7.22
2018-09-25T08:11:57.385Z,7.37
2018-09-25T08:14:30.860Z,7.30
2018-09-25T08:17:04.321Z,6.50
2018-09-25T08:19:38.080Z,7.83
2018-09-25T08:22:11.949Z,7.25
2018-09-25T08:24:45.442Z,7.97
2018-09-25T08:27:19.151Z,6.97
2018-09-25T08:29:52.825Z,8.08
2018-09-25T08:32:26.577Z,7.50
2018-09-25T08:35:00.402Z,7.45
2018-09-25T08:37:33.880Z,8.13
2018-09-25T08:40:07.667Z,7.97
2018-09-25T08:42:41.245Z,7.33
2018-09-25T08:45:15.454Z,6.40
2018-09-25T08:47:49.007Z,8.30
2018-09-25T08:50:22.920Z,6.60
2018-09-25T08:52:56.436Z,6.80
2018-09-25T08:55:30.136Z,7.70
2018-09-25T08:58:03.801Z,6.43
2018-09-25T09:00:37.533Z,7.13
2018-09-25T09:03:11.441Z,5.33
2018-09-25T09:05:45.181Z,7.37
2018-09-25T09:08:18.798Z,8.57
2018-09-25T09:10:52.532Z,6.67
2018-09-25T09:13:26.237Z,6.43
2018-09-25T09:15:59.903Z,6.00
2018-09-25T09:18:33.560Z,6.20
2018-09-25T09:21:07.245Z,6.50
2018-09-25T09:23:40.901Z,5.40
2018-09-25T09:26:14.580Z,4.90
2018-09-25T09:28:48.255Z,4.67
2018-09-25T09:31:22.346Z,3.83
2018-09-25T09:33:56.001Z,3.00
2018-09-25T09:36:29.673Z,4.60
2018-09-25T09:39:03.254Z,5.10
2018-09-25T09:41:37.000Z,4.43
2018-09-25T09:44:10.540Z,4.23
2018-09-25T09:46:44.088Z,3.90
2018-09-25T09:49:17.684Z,3.60
2018-09-25T09:51:51.335Z,4.37
2018-09-25T09:54:24.885Z,5.47
2018-09-25T09:56:58.484Z,4.53
2018-09-25T09:59:32.622Z,5.20
2018-09-25T10:02:06.304Z,5.13
2018-09-25T10:04:39.781Z,4.27
2018-09-25T10:07:13.326Z,6.30
2018-09-25T10:09:46.963Z,4.17
2018-09-25T10:12:20.575Z,3.90
2018-09-25T10:14:54.166Z,3.23
2018-09-25T10:17:27.917Z,2.43
2018-09-25T10:20:01.557Z,2.90
2018-09-25T10:22:35.120Z,2.90
2018-09-25T10:25:08.801Z,3.07
2018-09-25T10:27:42.430Z,3.30
2018-09-25T10:30:16.004Z,3.87
2018-09-25T10:32:49.491Z,3.20
2018-09-25T10:35:23.156Z,2.80
2018-09-25T10:37:56.795Z,2.93
2018-09-25T10:40:30.309Z,2.00
2018-09-25T10:43:03.960Z,2.43
2018-09-25T10:45:37.598Z,3.50
2018-09-25T10:48:11.289Z,3.70
2018-09-25T10:50:44.949Z,2.60
2018-09-25T10:53:18.503Z,4.60
2018-09-25T10:55:52.227Z,2.20
2018-09-25T10:58:25.733Z,2.80
2018-09-25T11:00:59.206Z,2.50
2018-09-25T11:03:33.656Z,2.50
2018-09-25T11:06:07.279Z,2.43
2018-09-25T11:08:40.760Z,2.57
2018-09-25T11:11:14.426Z,2.30
2018-09-25T11:13:48.132Z,3.97
2018-09-25T11:16:21.808Z,2.90
2018-09-25T11:18:55.393Z,2.43
2018-09-25T11:21:29.065Z,1.63
2018-09-25T11:24:02.644Z,2.00
2018-09-25T11:26:36.174Z,2.70
2018-09-25T11:29:09.802Z,2.10
2018-09-25T11:31:44.314Z,2.30
2018-09-25T11:34:18.586Z,1.90
2018-09-25T11:36:52.241Z,1.37
2018-09-25T11:39:25.801Z,1.70
2018-09-25T11:41:59.953Z,2.03
2018-09-25T11:44:33.612Z,1.90
2018-09-25T11:47:07.297Z,2.20
2018-09-25T11:49:40.799Z,2.97
2018-09-25T11:52:15.133Z,2.40
2018-09-25T11:54:48.683Z,2.57
2018-09-25T11:57:22.356Z,3.07
2018-09-25T11:59:56.508Z,3.10
2018-09-25T12:02:30.169Z,3.50
2018-09-25T12:05:03.728Z,2.50
2018-09-25T12:07:37.385Z,3.20
2018-09-25T12:10:11.071Z,2.33
2018-09-25T12:12:44.713Z,2.80
2018-09-25T12:15:18.283Z,2.90
2018-09-25T12:17:51.857Z,2.30
2018-09-25T12:20:25.580Z,1.60
2018-09-25T12:22:59.988Z,1.87
2018-09-25T12:25:33.592Z,1.80
2018-09-25T12:28:07.243Z,1.87
2018-09-25T12:30:40.808Z,1.53
2018-09-25T12:33:14.444Z,1.83
2018-09-25T12:35:48.122Z,1.37
2018-09-25T12:38:21.670Z,1.77
2018-09-25T12:40:55.955Z,1.50
2018-09-25T12:43:29.628Z,1.57
2018-09-25T12:46:03.304Z,1.90
2018-09-25T12:48:36.884Z,1.47
2018-09-25T12:51:10.662Z,1.20
2018-09-25T12:53:44.296Z,1.80
2018-09-25T12:56:17.977Z,1.53
2018-09-25T12:58:52.414Z,1.90
2018-09-25T13:01:26.011Z,2.00
2018-09-25T13:03:59.613Z,2.40
2018-09-25T13:06:33.282Z,1.30
2018-09-25T13:09:07.953Z,1.20
2018-09-25T13:11:41.619Z,1.67
2018-09-25T13:14:15.270Z,1.40
2018-09-25T13:16:48.832Z,1.83
2018-09-25T13:19:22.432Z,1.47
2018-09-25T13:21:55.989Z,1.97
2018-09-25T13:24:29.637Z,2.20
2018-09-25T13:27:03.145Z,1.60
2018-09-25T13:29:36.808Z,1.93
2018-09-25T13:32:11.045Z,1.60
2018-09-25T13:34:45.083Z,1.80
2018-09-25T13:37:18.703Z,1.70
2018-09-25T13:39:52.362Z,1.73
2018-09-25T13:42:25.992Z,1.20
2018-09-25T13:44:59.656Z,1.70
2018-09-25T13:47:33.190Z,1.17
2018-09-25T13:50:06.864Z,1.70
2018-09-25T13:52:40.990Z,1.23
2018-09-25T13:55:14.677Z,1.77
2018-09-25T13:57:48.244Z,1.47
2018-09-25T14:00:21.972Z,1.07
2018-09-25T14:02:55.657Z,1.53
2018-09-25T14:05:29.661Z,1.47
2018-09-25T14:08:03.724Z,1.63
2018-09-25T14:10:37.771Z,1.20
2018-09-25T14:13:11.422Z,1.20
2018-09-25T14:15:45.005Z,1.13
2018-09-25T14:18:19.183Z,1.60
2018-09-25T14:20:52.860Z,1.40
2018-09-25T14:23:26.341Z,1.53
2018-09-25T14:26:00.737Z,1.90
2018-09-25T14:28:34.584Z,1.40
2018-09-25T14:31:12.810Z,1.73
2018-09-25T14:33:46.544Z,1.90
2018-09-25T14:36:20.212Z,1.43
2018-09-25T14:38:54.158Z,0.90
2018-09-25T14:41:30.840Z,1.30
2018-09-25T14:44:04.456Z,1.50
2018-09-25T14:46:38.095Z,1.60
2018-09-25T14:49:11.994Z,1.27
2018-09-25T14:51:45.662Z,1.10
2018-09-25T14:54:20.327Z,1.40
2018-09-25T14:56:53.867Z,1.37
2018-09-25T14:59:27.480Z,1.20
2018-09-25T15:02:01.109Z,0.97
2018-09-25T15:04:35.426Z,1.00
2018-09-25T15:07:09.163Z,1.10
2018-09-25T15:09:42.865Z,1.10
2018-09-25T15:12:20.810Z,1.20
2018-09-25T15:14:57.393Z,1.80
2018-09-25T15:17:31.069Z,1.60
2018-09-25T15:20:05.047Z,1.40
2018-09-25T15:22:39.420Z,1.43
2018-09-25T15:25:13.989Z,1.30
2018-09-25T15:27:49.805Z,1.20
2018-09-25T15:30:23.449Z,1.40
2018-09-25T15:32:56.985Z,1.20
2018-09-25T15:35:30.801Z,1.10
2018-09-25T15:38:04.596Z,1.30
2018-09-25T15:40:38.250Z,1.20
2018-09-25T15:43:11.801Z,1.07
2018-09-25T15:45:45.481Z,1.60
2018-09-25T15:48:19.136Z,1.37
2018-09-25T15:50:53.137Z,1.40
2018-09-25T15:53:26.737Z,1.90
2018-09-25T15:56:00.393Z,1.23
2018-09-25T15:58:34.646Z,1.47
2018-09-25T16:01:08.274Z,8.93
2018-09-25T16:03:41.910Z,2.37
2018-09-25T16:06:15.505Z,2.53
2018-09-25T16:08:49.088Z,2.40
2018-09-25T16:11:22.761Z,2.00
2018-09-25T16:13:56.346Z,1.53
2018-09-25T16:16:30.033Z,1.37
2018-09-25T16:19:03.701Z,1.43
2018-09-25T16:21:37.188Z,1.70
2018-09-25T16:24:10.881Z,1.33
2018-09-25T16:26:44.481Z,1.70
2018-09-25T16:29:18.013Z,1.23
2018-09-25T16:31:51.726Z,1.90
2018-09-25T16:34:25.301Z,1.53
2018-09-25T16:36:58.891Z,1.40
2018-09-25T16:39:32.547Z,1.70
2018-09-25T16:42:06.215Z,1.80
2018-09-25T16:44:39.698Z,1.23
2018-09-25T16:47:13.451Z,1.43
2018-09-25T16:49:47.753Z,1.70
2018-09-25T16:52:21.940Z,1.40
2018-09-25T16:54:55.664Z,3.70
2018-09-25T16:57:29.324Z,5.00
2018-09-25T17:00:03.658Z,4.40
2018-09-25T17:02:37.427Z,3.73
2018-09-25T17:05:11.088Z,2.20
2018-09-25T17:07:44.952Z,2.67
2018-09-25T17:10:18.697Z,3.80
2018-09-25T17:12:52.374Z,12.10
2018-09-25T17:15:25.923Z,8.23
2018-09-25T17:17:59.450Z,2.60
2018-09-25T17:20:33.063Z,1.63
2018-09-25T17:23:06.645Z,2.40
2018-09-25T17:25:40.232Z,2.20
2018-09-25T17:28:13.957Z,2.20
2018-09-25T17:30:47.507Z,2.60
2018-09-25T17:33:21.365Z,2.07
2018-09-25T17:35:54.953Z,2.30
2018-09-25T17:38:28.694Z,2.00
2018-09-25T17:41:02.345Z,3.33
2018-09-25T17:43:35.899Z,2.83
2018-09-25T17:46:09.582Z,1.93
2018-09-25T17:48:43.265Z,2.17
2018-09-25T17:51:16.933Z,1.70
2018-09-25T17:53:50.486Z,1.60
2018-09-25T17:56:24.184Z,1.97
2018-09-25T17:58:57.979Z,1.83
2018-09-25T18:01:31.655Z,1.73
2018-09-25T18:04:05.199Z,1.63
2018-09-25T18:06:38.824Z,2.13
2018-09-25T18:09:13.933Z,2.03
2018-09-25T18:11:47.724Z,9.00
2018-09-25T18:14:21.409Z,3.23
2018-09-25T18:16:55.089Z,26.70
2018-09-25T18:19:28.725Z,54.37
2018-09-25T18:22:02.311Z,21.00
2018-09-25T18:24:35.845Z,13.10
2018-09-25T18:27:09.521Z,4.00
2018-09-25T18:29:43.146Z,3.77
2018-09-25T18:32:16.751Z,2.00
2018-09-25T18:34:50.421Z,3.63
2018-09-25T18:37:24.072Z,2.97
2018-09-25T18:39:57.764Z,2.67
2018-09-25T18:42:31.419Z,2.30
2018-09-25T18:45:05.083Z,1.67
2018-09-25T18:47:38.674Z,2.67
2018-09-25T18:50:12.380Z,2.00
2018-09-25T18:52:45.955Z,2.30
2018-09-25T18:55:19.656Z,1.90
2018-09-25T18:57:53.236Z,3.20
2018-09-25T19:00:26.864Z,3.63
2018-09-25T19:03:00.552Z,2.55
2018-09-25T19:05:34.045Z,5.83
2018-09-25T19:08:12.542Z,21.12
2018-09-25T19:10:46.215Z,5.07
2018-09-25T19:13:19.796Z,5.42
2018-09-25T19:15:53.378Z,5.67
2018-09-25T19:18:27.083Z,4.83
2018-09-25T19:21:01.654Z,6.00
2018-09-25T19:23:35.971Z,7.40
2018-09-25T19:26:12.718Z,9.38
2018-09-25T19:28:46.624Z,5.65
2018-09-25T19:31:22.834Z,6.65
2018-09-25T19:33:58.425Z,7.65
2018-09-25T19:36:32.760Z,7.25
2018-09-25T19:39:10.613Z,5.55
2018-09-25T19:41:44.453Z,6.60
2018-09-25T19:44:18.007Z,5.28
2018-09-25T19:46:55.124Z,4.28
2018-09-25T19:49:28.630Z,5.53
2018-09-25T19:52:02.358Z,5.15
2018-09-25T19:54:35.835Z,6.92
2018-09-25T19:57:09.546Z,6.05
2018-09-25T19:59:43.307Z,5.30
2018-09-25T20:02:16.922Z,5.08
2018-09-25T20:04:50.568Z,5.60
2018-09-25T20:07:24.169Z,6.90
2018-09-25T20:09:58.718Z,8.10
2018-09-25T20:12:32.243Z,8.88
2018-09-25T20:15:05.953Z,7.05
2018-09-25T20:17:39.524Z,6.95
2018-09-25T20:20:13.714Z,7.67
2018-09-25T20:22:47.230Z,9.73
2018-09-25T20:25:21.939Z,11.65
2018-09-25T20:27:55.646Z,10.03
2018-09-25T20:30:30.118Z,10.88
2018-09-25T20:33:03.733Z,10.70
2018-09-25T20:35:37.441Z,8.90
2018-09-25T20:38:11.345Z,7.87
2018-09-25T20:40:45.054Z,9.03
2018-09-25T20:43:19.354Z,8.75
2018-09-25T20:45:52.866Z,7.92
2018-09-25T20:48:26.536Z,7.17
2018-09-25T20:51:00.061Z,6.97
2018-09-25T20:53:33.722Z,6.55
2018-09-25T20:56:07.353Z,6.42
2018-09-25T20:58:40.804Z,6.92
2018-09-25T21:01:14.634Z,7.45
2018-09-25T21:03:48.770Z,7.75
2018-09-25T21:06:22.367Z,9.25
2018-09-25T21:08:55.948Z,8.40
2018-09-25T21:11:29.562Z,8.65
2018-09-25T21:14:03.223Z,7.62
2018-09-25T21:16:36.941Z,7.50
2018-09-25T21:19:10.673Z,7.53
2018-09-25T21:21:44.351Z,7.00
2018-09-25T21:24:18.012Z,7.50
2018-09-25T21:26:51.749Z,7.72
2018-09-25T21:29:25.260Z,8.23
2018-09-25T21:31:58.978Z,8.28
2018-09-25T21:34:32.720Z,6.50
2018-09-25T21:37:06.411Z,6.87
2018-09-25T21:39:39.982Z,6.05
2018-09-25T21:42:14.366Z,6.28
2018-09-25T21:44:48.060Z,5.05
2018-09-25T21:47:21.623Z,4.50
2018-09-25T21:49:55.701Z,5.17
2018-09-25T21:52:29.884Z,4.75
2018-09-25T21:55:03.586Z,3.90
2018-09-25T21:57:37.187Z,4.22
2018-09-25T22:00:11.545Z,4.87
2018-09-25T22:02:45.125Z,4.67
2018-09-25T22:05:18.815Z,3.67
2018-09-25T22:07:52.489Z,4.55
2018-09-25T22:10:26.162Z,4.20
2018-09-25T22:12:59.748Z,4.55
2018-09-25T22:15:33.444Z,3.80
2018-09-25T22:18:07.095Z,4.17
2018-09-25T22:20:40.836Z,5.10
2018-09-25T22:23:14.361Z,4.90
2018-09-25T22:25:48.607Z,5.47
2018-09-25T22:28:22.280Z,5.10
2018-09-25T22:30:55.860Z,4.87
2018-09-25T22:33:29.409Z,4.60
2018-09-25T22:36:03.088Z,4.00
2018-09-25T22:38:36.928Z,5.17
2018-09-25T22:41:10.445Z,5.53
2018-09-25T22:43:44.126Z,5.00
2018-09-25T22:46:18.362Z,5.00
2018-09-25T22:48:52.660Z,4.62
2018-09-25T22:51:26.340Z,4.20
2018-09-25T22:53:59.931Z,4.50
2018-09-25T22:56:33.577Z,4.45
2018-09-25T22:59:07.133Z,5.15
2018-09-25T23:01:40.690Z,4.28
2018-09-25T23:04:14.477Z,5.33
2018-09-25T23:06:47.972Z,5.40
2018-09-25T23:09:22.232Z,5.10
2018-09-25T23:11:56.580Z,4.17
2018-09-25T23:14:30.196Z,4.42
2018-09-25T23:17:03.869Z,3.87
2018-09-25T23:19:37.500Z,4.05
2018-09-25T23:22:11.092Z,4.10
2018-09-25T23:24:44.770Z,3.72
2018-09-25T23:27:18.413Z,3.98
2018-09-25T23:29:51.891Z,4.28
2018-09-25T23:32:25.352Z,4.30
2018-09-25T23:34:59.037Z,4.30
2018-09-25T23:37:32.593Z,3.62
2018-09-25T23:40:16.312Z,3.70
2018-09-25T23:42:51.709Z,3.65
2018-09-25T23:45:29.296Z,3.75
2018-09-25T23:49:01.784Z,4.10
2018-09-25T23:51:36.168Z,3.90
2018-09-25T23:54:25.706Z,4.10
2018-09-25T23:57:29.035Z,3.83
